createdAt,value
2022-08-03T00:01:06.191Z,56.00
2022-08-03T00:03:35.259Z,56.20
2022-08-03T00:06:05.210Z,56.30
2022-08-03T00:08:42.247Z,56.50
2022-08-03T00:11:12.822Z,56.60
2022-08-03T00:13:41.550Z,56.80
2022-08-03T00:16:13.402Z,57.00
2022-08-03T00:18:42.818Z,57.10
2022-08-03T00:21:15.717Z,57.20
2022-08-03T00:23:52.750Z,57.20
2022-08-03T00:26:21.369Z,57.20
2022-08-03T00:28:49.856Z,57.30
2022-08-03T00:31:39.925Z,57.40
2022-08-03T00:34:18.257Z,57.40
2022-08-03T00:37:00.900Z,57.60
2022-08-03T00:39:30.789Z,57.80
2022-08-03T00:42:01.007Z,57.90
2022-08-03T00:44:31.262Z,57.90
2022-08-03T00:46:59.978Z,58.10
2022-08-03T00:49:30.217Z,58.10
2022-08-03T00:52:09.528Z,58.20
2022-08-03T00:55:01.748Z,58.10
2022-08-03T00:57:32.118Z,58.30
2022-08-03T01:00:04.148Z,58.50
2022-08-03T01:02:34.503Z,58.70
2022-08-03T01:05:03.023Z,58.80
2022-08-03T01:07:46.074Z,59.00
2022-08-03T01:10:24.859Z,59.20
2022-08-03T01:13:02.542Z,59.20
2022-08-03T01:15:59.537Z,59.20
2022-08-03T01:18:37.021Z,59.30
2022-08-03T01:21:15.785Z,59.60
2022-08-03T01:24:07.989Z,59.60
2022-08-03T01:27:00.164Z,59.70
2022-08-03T01:30:07.294Z,59.80
2022-08-03T01:33:08.187Z,59.90
2022-08-03T01:35:42.880Z,60.00
2022-08-03T01:38:16.009Z,60.10
2022-08-03T01:40:48.150Z,60.20
2022-08-03T01:44:18.104Z,60.20
2022-08-03T01:46:28.382Z,60.30
2022-08-03T01:49:09.262Z,60.30
2022-08-03T01:52:03.521Z,60.40
2022-08-03T01:54:35.246Z,60.40
2022-08-03T01:57:06.202Z,60.60
2022-08-03T01:59:37.532Z,60.70
2022-08-03T02:02:28.986Z,60.70
2022-08-03T02:05:10.720Z,61.00
2022-08-03T02:07:42.026Z,61.20
2022-08-03T02:10:14.342Z,61.20
2022-08-03T02:12:51.061Z,61.40
2022-08-03T02:15:21.042Z,61.50
2022-08-03T02:17:57.400Z,61.60
2022-08-03T02:20:28.643Z,61.70
2022-08-03T02:23:00.229Z,61.70
2022-08-03T02:25:29.808Z,61.80
2022-08-03T02:28:04.961Z,62.00
2022-08-03T02:30:39.791Z,62.10
2022-08-03T02:33:28.734Z,62.20
2022-08-03T02:36:03.183Z,62.50
2022-08-03T02:38:39.424Z,62.60
2022-08-03T02:41:18.386Z,62.70
2022-08-03T02:44:07.095Z,62.90
2022-08-03T02:46:42.056Z,63.00
2022-08-03T02:49:49.731Z,63.30
2022-08-03T02:52:13.306Z,63.40
2022-08-03T02:54:49.304Z,63.40
2022-08-03T02:57:20.938Z,63.50
2022-08-03T02:59:49.591Z,63.50
2022-08-03T03:02:25.342Z,63.50
2022-08-03T03:05:53.026Z,63.50
2022-08-03T03:07:52.212Z,63.50
2022-08-03T03:10:25.929Z,63.80
2022-08-03T03:12:57.456Z,63.90
2022-08-03T03:15:27.894Z,64.00
2022-08-03T03:17:57.630Z,64.20
2022-08-03T03:20:30.022Z,64.30
2022-08-03T03:23:11.616Z,64.40
2022-08-03T03:25:42.134Z,64.50
2022-08-03T03:28:22.444Z,64.70
2022-08-03T03:30:57.827Z,64.80
2022-08-03T03:33:29.069Z,65.00
2022-08-03T03:35:59.721Z,65.00
2022-08-03T03:38:28.325Z,65.10
2022-08-03T03:41:00.591Z,65.20
2022-08-03T03:43:30.591Z,65.30
2022-08-03T03:46:00.676Z,65.30
2022-08-03T03:48:29.844Z,65.40
2022-08-03T03:51:06.995Z,65.50
2022-08-03T03:53:37.517Z,65.60
2022-08-03T03:56:08.287Z,65.60
2022-08-03T03:58:36.778Z,65.60
2022-08-03T04:01:08.843Z,65.70
2022-08-03T04:03:37.311Z,65.70
2022-08-03T04:06:27.375Z,65.80
2022-08-03T04:09:13.086Z,65.90
2022-08-03T04:11:47.469Z,66.10
2022-08-03T04:14:19.067Z,66.10
2022-08-03T04:16:51.295Z,66.40
2022-08-03T04:19:31.725Z,66.50
2022-08-03T04:22:07.223Z,66.60
2022-08-03T04:24:42.384Z,66.70
2022-08-03T04:27:13.699Z,66.80
2022-08-03T04:29:48.596Z,66.70
2022-08-03T04:32:22.631Z,66.60
2022-08-03T04:34:52.730Z,66.70
2022-08-03T04:37:29.103Z,66.70
2022-08-03T04:40:00.680Z,66.80
2022-08-03T04:42:30.085Z,66.80
2022-08-03T04:45:01.687Z,66.80
2022-08-03T04:47:36.865Z,66.90
2022-08-03T04:50:12.230Z,66.90
2022-08-03T04:52:42.826Z,66.80
2022-08-03T04:55:12.333Z,66.90
2022-08-03T04:57:40.534Z,66.90
2022-08-03T05:00:13.389Z,66.90
2022-08-03T05:02:41.700Z,66.90
2022-08-03T05:05:12.579Z,66.80
2022-08-03T05:07:46.802Z,66.70
2022-08-03T05:10:16.768Z,66.70
2022-08-03T05:12:48.727Z,66.70
2022-08-03T05:15:17.181Z,66.60
2022-08-03T05:17:47.612Z,66.50
2022-08-03T05:20:18.813Z,66.40
2022-08-03T05:22:49.863Z,66.30
2022-08-03T05:25:24.449Z,66.30
2022-08-03T05:27:56.814Z,66.30
2022-08-03T05:30:33.928Z,66.20
2022-08-03T05:33:08.228Z,66.00
2022-08-03T05:36:00.848Z,65.80
2022-08-03T05:38:35.535Z,65.40
2022-08-03T05:41:21.927Z,65.30
2022-08-03T05:43:55.721Z,65.00
2022-08-03T05:46:27.449Z,64.70
2022-08-03T05:48:55.779Z,64.20
2022-08-03T05:51:31.039Z,64.00
2022-08-03T05:54:01.742Z,63.60
2022-08-03T05:56:30.054Z,63.40
2022-08-03T05:58:58.249Z,63.10
2022-08-03T06:01:28.595Z,62.80
2022-08-03T06:03:57.349Z,62.70
2022-08-03T06:06:28.287Z,62.50
2022-08-03T06:09:02.805Z,62.30
2022-08-03T06:11:32.488Z,62.10
2022-08-03T06:14:01.960Z,61.90
2022-08-03T06:16:30.211Z,61.60
2022-08-03T06:19:01.676Z,61.20
2022-08-03T06:21:30.440Z,61.00
2022-08-03T06:23:59.209Z,60.80
2022-08-03T06:26:34.152Z,60.70
2022-08-03T06:29:08.541Z,60.40
2022-08-03T06:31:39.368Z,60.00
2022-08-03T06:34:31.052Z,59.50
2022-08-03T06:37:01.754Z,59.10
2022-08-03T06:39:30.725Z,58.70
2022-08-03T06:42:03.836Z,58.60
2022-08-03T06:44:33.323Z,58.10
2022-08-03T06:47:04.010Z,57.70
2022-08-03T06:49:33.595Z,57.40
2022-08-03T06:52:06.933Z,57.20
2022-08-03T06:54:37.186Z,57.10
2022-08-03T06:57:14.113Z,56.60
2022-08-03T07:00:10.363Z,56.40
2022-08-03T07:02:40.718Z,56.00
2022-08-03T07:07:57.784Z,55.00
2022-08-03T07:10:27.858Z,55.10
2022-08-03T07:12:58.615Z,54.80
2022-08-03T07:15:55.643Z,54.60
2022-08-03T07:18:17.970Z,54.50
2022-08-03T07:20:58.199Z,54.10
2022-08-03T07:23:26.555Z,53.80
2022-08-03T07:25:55.326Z,53.70
2022-08-03T07:28:31.030Z,53.80
2022-08-03T07:31:04.477Z,53.70
2022-08-03T07:33:33.946Z,53.40
2022-08-03T07:36:28.182Z,53.40
2022-08-03T07:39:14.708Z,53.30
2022-08-03T07:41:54.159Z,53.00
2022-08-03T07:44:41.119Z,52.90
2022-08-03T07:47:09.333Z,52.80
2022-08-03T07:49:42.166Z,52.00
2022-08-03T07:52:28.341Z,51.90
2022-08-03T07:54:56.913Z,51.90
2022-08-03T07:57:25.492Z,50.80
2022-08-03T08:00:17.523Z,50.70
2022-08-03T08:02:49.703Z,50.30
2022-08-03T08:05:18.317Z,50.30
2022-08-03T08:07:51.424Z,50.20
2022-08-03T08:10:20.648Z,49.70
2022-08-03T08:12:50.497Z,49.40
2022-08-03T08:15:28.016Z,49.30
2022-08-03T08:18:01.228Z,49.40
2022-08-03T08:20:42.479Z,49.00
2022-08-03T08:23:41.684Z,48.60
2022-08-03T08:26:05.705Z,48.70
2022-08-03T08:28:44.490Z,48.10
2022-08-03T08:31:17.569Z,47.80
2022-08-03T08:34:03.515Z,47.60
2022-08-03T08:36:34.232Z,47.50
2022-08-03T08:39:02.712Z,47.00
2022-08-03T08:41:33.820Z,47.10
2022-08-03T08:44:02.494Z,47.10
2022-08-03T08:46:34.447Z,46.90
2022-08-03T08:49:03.814Z,46.20
2022-08-03T08:51:52.707Z,46.00
2022-08-03T08:54:27.752Z,46.00
2022-08-03T08:57:12.409Z,45.80
2022-08-03T08:59:55.699Z,45.60
2022-08-03T09:02:27.345Z,45.70
2022-08-03T09:04:56.237Z,45.20
2022-08-03T09:07:24.589Z,45.10
2022-08-03T09:10:10.368Z,45.10
2022-08-03T09:12:42.741Z,44.60
2022-08-03T09:15:23.326Z,44.50
2022-08-03T09:17:54.769Z,44.60
2022-08-03T09:20:24.702Z,44.30
2022-08-03T09:23:19.037Z,44.10
2022-08-03T09:26:00.123Z,43.70
2022-08-03T09:29:01.492Z,43.40
2022-08-03T09:31:32.507Z,43.40
2022-08-03T09:34:04.915Z,43.20
2022-08-03T09:36:40.693Z,43.00
2022-08-03T09:39:11.183Z,43.20
2022-08-03T09:41:40.847Z,43.00
2022-08-03T09:44:24.171Z,42.90
2022-08-03T09:46:56.614Z,42.70
2022-08-03T09:49:26.744Z,42.80
2022-08-03T09:52:33.235Z,42.70
2022-08-03T09:54:44.031Z,42.70
2022-08-03T09:57:23.849Z,42.50
2022-08-03T10:00:02.942Z,42.20
2022-08-03T10:02:34.628Z,42.10
2022-08-03T10:05:05.339Z,42.00
2022-08-03T10:07:45.946Z,41.40
2022-08-03T10:10:30.467Z,41.90
2022-08-03T10:13:00.844Z,41.40
2022-08-03T10:16:23.901Z,41.60
2022-08-03T10:18:17.887Z,41.40
2022-08-03T10:20:53.162Z,41.10
2022-08-03T10:23:22.612Z,40.80
2022-08-03T10:25:57.091Z,40.70
2022-08-03T10:28:26.204Z,40.80
2022-08-03T10:30:56.254Z,40.60
2022-08-03T10:33:51.834Z,40.40
2022-08-03T10:36:18.396Z,40.20
2022-08-03T10:38:52.690Z,40.00
2022-08-03T10:41:22.302Z,39.90
2022-08-03T10:43:54.115Z,39.60
2022-08-03T10:46:23.254Z,39.30
2022-08-03T10:48:53.917Z,39.20
2022-08-03T10:51:25.008Z,39.20
2022-08-03T10:53:54.686Z,39.00
2022-08-03T10:57:00.352Z,39.10
2022-08-03T11:00:05.154Z,39.30
2022-08-03T11:03:14.575Z,39.10
2022-08-03T11:05:44.532Z,38.60
2022-08-03T11:08:24.994Z,38.80
2022-08-03T11:10:55.324Z,38.70
2022-08-03T11:13:26.119Z,38.60
2022-08-03T11:16:00.140Z,38.10
2022-08-03T11:18:31.679Z,38.30
2022-08-03T11:21:01.305Z,38.40
2022-08-03T11:24:02.599Z,38.10
2022-08-03T11:26:36.882Z,38.30
2022-08-03T11:29:32.296Z,37.90
2022-08-03T11:32:04.098Z,37.50
2022-08-03T11:34:32.591Z,37.90
2022-08-03T11:37:30.112Z,37.80
2022-08-03T11:40:39.330Z,37.30
2022-08-03T11:43:11.153Z,37.20
2022-08-03T11:45:45.378Z,37.00
2022-08-03T11:48:21.163Z,37.00
2022-08-03T11:50:49.481Z,36.80
2022-08-03T11:53:19.968Z,36.80
2022-08-03T11:55:50.004Z,36.40
2022-08-03T11:59:01.263Z,36.40
2022-08-03T12:01:12.610Z,36.70
2022-08-03T12:03:42.162Z,36.20
2022-08-03T12:06:15.686Z,36.20
2022-08-03T12:08:49.359Z,35.90
2022-08-03T12:11:20.372Z,35.70
2022-08-03T12:14:44.307Z,35.70
2022-08-03T12:16:41.768Z,35.90
2022-08-03T12:19:09.938Z,35.40
2022-08-03T12:21:57.314Z,35.00
2022-08-03T12:24:28.582Z,35.10
2022-08-03T12:27:00.023Z,34.80
2022-08-03T12:29:29.185Z,34.90
2022-08-03T12:31:57.806Z,34.90
2022-08-03T12:34:26.050Z,35.10
2022-08-03T12:37:00.146Z,34.50
2022-08-03T12:39:30.791Z,34.70
2022-08-03T12:42:00.878Z,34.30
2022-08-03T12:44:32.355Z,34.40
2022-08-03T12:47:01.306Z,34.10
2022-08-03T12:49:30.451Z,34.30
2022-08-03T12:52:04.087Z,34.30
2022-08-03T12:54:36.141Z,34.00
2022-08-03T12:57:07.584Z,33.90
2022-08-03T12:59:41.338Z,34.20
2022-08-03T13:02:17.708Z,34.20
2022-08-03T13:04:47.142Z,33.60
2022-08-03T13:07:16.360Z,33.50
2022-08-03T13:09:48.059Z,33.30
2022-08-03T13:12:19.177Z,33.60
2022-08-03T13:14:49.633Z,33.20
2022-08-03T13:17:18.227Z,33.10
2022-08-03T13:19:47.922Z,32.80
2022-08-03T13:22:18.312Z,32.60
2022-08-03T13:24:48.351Z,32.70
2022-08-03T13:28:09.863Z,32.50
2022-08-03T13:30:08.908Z,31.80
2022-08-03T13:35:24.687Z,31.70
2022-08-03T13:37:52.936Z,31.70
2022-08-03T13:40:30.314Z,31.40
2022-08-03T13:43:13.188Z,31.20
2022-08-03T13:45:50.277Z,31.40
2022-08-03T13:48:35.974Z,31.10
2022-08-03T13:51:22.188Z,31.70
2022-08-03T13:53:52.321Z,31.60
2022-08-03T13:56:20.701Z,31.30
2022-08-03T13:58:50.385Z,31.00
2022-08-03T14:01:53.511Z,30.40
2022-08-03T14:04:15.155Z,30.70
2022-08-03T14:06:50.422Z,30.30
2022-08-03T14:09:18.700Z,30.00
2022-08-03T14:12:06.882Z,30.30
2022-08-03T14:14:37.340Z,30.10
2022-08-03T14:17:05.682Z,30.20
2022-08-03T14:19:34.261Z,30.10
2022-08-03T14:22:21.021Z,29.60
2022-08-03T14:24:51.632Z,29.70
2022-08-03T14:27:21.322Z,29.80
2022-08-03T14:29:50.955Z,29.80
2022-08-03T14:32:19.148Z,29.40
2022-08-03T14:34:49.629Z,29.40
2022-08-03T14:37:17.945Z,29.40
2022-08-03T14:40:02.367Z,29.00
2022-08-03T14:42:30.650Z,28.70
2022-08-03T14:45:04.659Z,28.40
2022-08-03T14:50:10.535Z,27.50
2022-08-03T14:50:31.294Z,26.80
2022-08-03T14:53:07.393Z,26.80
2022-08-03T14:55:38.196Z,26.00
2022-08-03T14:58:20.046Z,25.30
2022-08-03T15:00:52.273Z,25.50
2022-08-03T15:03:23.668Z,24.50
2022-08-03T15:05:52.997Z,24.20
2022-08-03T15:08:21.537Z,24.60
2022-08-03T15:10:49.861Z,24.40
2022-08-03T15:13:19.639Z,23.90
2022-08-03T15:15:48.376Z,23.20
2022-08-03T15:18:17.971Z,23.20
2022-08-03T15:20:47.239Z,22.80
2022-08-03T15:23:16.517Z,22.90
2022-08-03T15:26:28.009Z,22.50
2022-08-03T15:28:34.145Z,22.40
2022-08-03T15:31:05.859Z,22.20
2022-08-03T15:33:35.535Z,22.00
2022-08-03T15:36:04.519Z,21.90
2022-08-03T15:38:32.855Z,21.90
2022-08-03T15:41:01.070Z,21.70
2022-08-03T15:43:29.297Z,20.80
2022-08-03T15:46:27.805Z,20.00
2022-08-03T15:48:48.299Z,19.80
2022-08-03T15:51:16.912Z,19.40
2022-08-03T15:53:45.250Z,19.00
2022-08-03T15:56:18.239Z,18.70
2022-08-03T15:59:11.424Z,18.00
2022-08-03T16:01:35.641Z,17.50
2022-08-03T16:04:05.485Z,17.10
2022-08-03T16:06:35.455Z,17.10
2022-08-03T16:09:24.153Z,16.90
2022-08-03T16:11:54.904Z,16.90
2022-08-03T16:14:34.325Z,15.90
2022-08-03T16:17:04.568Z,15.60
2022-08-03T16:19:34.222Z,15.50
2022-08-03T16:22:03.938Z,14.90
2022-08-03T16:24:32.907Z,15.40
2022-08-03T16:27:01.276Z,16.00
2022-08-03T16:29:29.899Z,16.00
2022-08-03T16:31:58.219Z,16.10
2022-08-03T16:34:26.395Z,15.70
2022-08-03T16:36:56.010Z,16.00
2022-08-03T16:39:24.300Z,15.80
2022-08-03T16:42:00.474Z,15.60
2022-08-03T16:44:31.176Z,15.80
2022-08-03T16:46:59.797Z,15.90
2022-08-03T16:49:53.787Z,16.20
2022-08-03T16:52:18.061Z,16.50
2022-08-03T16:54:50.621Z,16.50
2022-08-03T16:57:56.765Z,16.70
2022-08-03T17:00:11.479Z,17.10
2022-08-03T17:02:48.254Z,17.50
2022-08-03T17:05:16.662Z,18.10
2022-08-03T17:07:50.666Z,19.00
2022-08-03T17:10:27.017Z,19.90
2022-08-03T17:12:55.760Z,20.90
2022-08-03T17:15:58.273Z,21.60
2022-08-03T17:18:17.764Z,22.30
2022-08-03T17:20:50.859Z,23.20
2022-08-03T17:23:34.623Z,23.60
2022-08-03T17:26:07.588Z,24.10
2022-08-03T17:28:50.193Z,24.40
2022-08-03T17:31:32.289Z,24.80
2022-08-03T17:34:15.447Z,25.10
2022-08-03T17:37:03.742Z,25.30
2022-08-03T17:39:58.856Z,25.50
2022-08-03T17:42:30.198Z,25.80
2022-08-03T17:45:03.906Z,26.00
2022-08-03T17:47:42.073Z,26.30
2022-08-03T17:53:23.845Z,26.60
2022-08-03T17:56:42.371Z,27.10
2022-08-03T17:59:50.766Z,27.40
2022-08-03T18:02:55.457Z,27.70
2022-08-03T18:06:10.439Z,28.10
2022-08-03T18:08:25.026Z,28.40
2022-08-03T18:11:14.587Z,28.60
2022-08-03T18:13:58.470Z,28.70
2022-08-03T18:16:34.520Z,28.80
2022-08-03T18:19:13.805Z,29.10
2022-08-03T18:22:03.445Z,29.30
2022-08-03T18:24:34.768Z,29.50
2022-08-03T18:27:45.516Z,29.80
2022-08-03T18:30:16.434Z,30.10
2022-08-03T18:33:00.720Z,30.40
2022-08-03T18:35:52.718Z,30.70
2022-08-03T18:38:29.215Z,31.00
2022-08-03T18:40:59.431Z,31.20
2022-08-03T18:43:46.244Z,31.50
2022-08-03T18:46:29.931Z,31.80
2022-08-03T18:49:15.381Z,32.10
2022-08-03T18:51:51.867Z,32.30
2022-08-03T18:57:30.209Z,32.70
2022-08-03T19:00:14.073Z,33.00
2022-08-03T19:02:54.949Z,33.20
2022-08-03T19:05:56.424Z,33.50
2022-08-03T19:08:19.221Z,33.60
2022-08-03T19:11:00.777Z,33.90
2022-08-03T19:13:36.741Z,34.10
2022-08-03T19:16:11.866Z,34.20
2022-08-03T19:18:43.293Z,34.40
2022-08-03T19:21:15.500Z,34.60
2022-08-03T19:23:48.270Z,34.70
2022-08-03T19:29:14.715Z,35.00
2022-08-03T19:32:00.571Z,35.10
2022-08-03T19:34:32.917Z,35.20
2022-08-03T19:37:03.857Z,35.40
2022-08-03T19:39:38.052Z,35.60
2022-08-03T19:42:20.009Z,35.80
2022-08-03T19:44:56.967Z,36.00
2022-08-03T19:47:33.304Z,36.20
2022-08-03T19:50:14.092Z,36.50
2022-08-03T19:52:46.141Z,36.70
2022-08-03T19:55:16.165Z,36.90
2022-08-03T19:57:49.409Z,37.10
2022-08-03T20:00:26.439Z,37.30
2022-08-03T20:02:59.428Z,37.40
2022-08-03T20:05:27.961Z,37.50
2022-08-03T20:07:58.486Z,37.70
2022-08-03T20:10:26.824Z,37.80
2022-08-03T20:12:56.503Z,37.80
2022-08-03T20:15:31.699Z,37.90
2022-08-03T20:18:01.867Z,38.00
2022-08-03T20:20:32.144Z,38.00
2022-08-03T20:23:06.888Z,38.10
2022-08-03T20:25:48.905Z,38.30
2022-08-03T20:28:31.941Z,38.50
2022-08-03T20:31:01.922Z,38.80
2022-08-03T20:33:45.822Z,38.70
2022-08-03T20:36:15.784Z,38.80
2022-08-03T20:38:47.384Z,39.10
2022-08-03T20:41:16.222Z,39.10
2022-08-03T20:43:44.927Z,39.20
2022-08-03T20:46:31.802Z,39.50
2022-08-03T20:49:06.200Z,40.00
2022-08-03T20:51:50.524Z,40.40
2022-08-03T20:54:31.341Z,40.50
2022-08-03T20:57:03.551Z,40.50
2022-08-03T20:59:50.042Z,40.50
2022-08-03T21:02:29.671Z,40.50
2022-08-03T21:05:03.612Z,40.40
2022-08-03T21:08:04.277Z,40.40
2022-08-03T21:10:29.458Z,40.60
2022-08-03T21:12:55.448Z,26.50
2022-08-03T21:13:09.190Z,34.80
2022-08-03T21:13:09.654Z,32.50
2022-08-03T21:13:16.009Z,40.70
2022-08-03T21:16:06.395Z,40.80
2022-08-03T21:18:41.485Z,41.00
2022-08-03T21:21:14.462Z,41.20
2022-08-03T21:23:49.007Z,41.50
2022-08-03T21:26:19.657Z,41.60
2022-08-03T21:28:48.821Z,41.70
2022-08-03T21:31:24.812Z,41.80
2022-08-03T21:33:56.132Z,42.00
2022-08-03T21:36:27.298Z,42.20
2022-08-03T21:38:57.383Z,42.70
2022-08-03T21:41:26.543Z,42.90
2022-08-03T21:43:54.805Z,43.20
2022-08-03T21:46:23.748Z,43.60
2022-08-03T21:48:56.794Z,43.80
2022-08-03T21:51:49.824Z,43.80
2022-08-03T21:54:19.921Z,44.10
2022-08-03T21:56:49.323Z,44.20
2022-08-03T21:59:19.342Z,44.50
2022-08-03T22:01:54.994Z,44.90
2022-08-03T22:04:38.853Z,45.10
2022-08-03T22:07:14.330Z,45.30
2022-08-03T22:09:50.985Z,45.40
2022-08-03T22:12:22.115Z,45.50
2022-08-03T22:15:01.379Z,45.70
2022-08-03T22:17:56.083Z,45.80
2022-08-03T22:20:21.453Z,45.90
2022-08-03T22:22:56.919Z,46.10
2022-08-03T22:25:30.049Z,46.30
2022-08-03T22:28:00.112Z,46.60
2022-08-03T22:30:29.151Z,46.80
2022-08-03T22:32:57.921Z,47.00
2022-08-03T22:35:28.434Z,47.20
2022-08-03T22:37:59.876Z,47.40
2022-08-03T22:40:34.983Z,47.60
2022-08-03T22:43:08.404Z,47.70
2022-08-03T22:46:06.113Z,47.80
2022-08-03T22:48:27.520Z,47.90
2022-08-03T22:51:00.188Z,48.00
2022-08-03T22:53:35.926Z,48.20
2022-08-03T22:56:20.026Z,48.40
2022-08-03T22:58:48.229Z,48.60
2022-08-03T23:01:20.931Z,48.70
2022-08-03T23:04:00.661Z,48.90
2022-08-03T23:06:35.144Z,49.10
2022-08-03T23:09:06.785Z,49.30
2022-08-03T23:11:45.736Z,49.50
2022-08-03T23:14:16.265Z,49.50
2022-08-03T23:16:46.248Z,49.70
2022-08-03T23:19:25.156Z,49.80
2022-08-03T23:22:02.962Z,49.90
2022-08-03T23:24:36.972Z,50.10
2022-08-03T23:27:06.426Z,50.10
2022-08-03T23:29:37.444Z,50.20
2022-08-03T23:32:07.058Z,50.30
2022-08-03T23:34:53.045Z,50.60
2022-08-03T23:37:21.422Z,50.70
2022-08-03T23:39:51.166Z,50.90
2022-08-03T23:42:22.845Z,51.00
2022-08-03T23:44:55.579Z,51.10
2022-08-03T23:47:24.458Z,51.20
2022-08-03T23:50:12.732Z,51.30
2022-08-03T23:52:50.328Z,51.50
2022-08-03T23:55:31.275Z,51.60
2022-08-03T23:58:10.886Z,51.60
